Saint Bonnet de Bellac- Haute Vienne - France
Donnes mto: mercredi, 16/11/2011
Date Horaire Temp. E. Hum. E. P.atmo. Pluie Vent Direction Direction Ensoleilleme Solaire P. de rose Temp au vent Rafales
16/11/2011 00:00 10,3 C 83 % 1013,6 hPa 0,0 mm 1,4 km/h (1 Bft) E-NE 67 0 min 0 W/m 7,5 C 10,3 C 3,2 km/h (1 Bft)
16/11/2011 00:05 10,4 C 83 % 1013,6 hPa 0,0 mm 1,4 km/h (1 Bft) E-SE 112 0 min 0 W/m 7,6 C 10,4 C 6,1 km/h (2 Bft)
16/11/2011 00:10 10,4 C 83 % 1013,7 hPa 0,0 mm 0,4 km/h (0 Bft) E 90 0 min 0 W/m 7,6 C 10,4 C 0,4 km/h (0 Bft)
16/11/2011 00:15 10,5 C 83 % 1013,7 hPa 0,0 mm 0,7 km/h (0 Bft) E-SE 112 0 min 0 W/m 7,7 C 10,5 C 0,7 km/h (0 Bft)
16/11/2011 00:20 10,6 C 83 % 1013,7 hPa 0,0 mm 1,8 km/h (1 Bft) E 90 0 min 0 W/m 7,8 C 10,6 C 1,8 km/h (1 Bft)
16/11/2011 00:25 10,7 C 82 % 1013,8 hPa 0,0 mm 0,4 km/h (0 Bft) E 90 0 min 0 W/m 7,8 C 10,7 C 3,2 km/h (1 Bft)
16/11/2011 00:30 10,8 C 82 % 1013,8 hPa 0,0 mm 0,0 km/h (0 Bft) E-SE 112 0 min 0 W/m 7,9 C 10,8 C 0,0 km/h (0 Bft)
16/11/2011 00:35 10,8 C 82 % 1013,7 hPa 0,0 mm 0,0 km/h (0 Bft) E-SE 112 0 min 0 W/m 7,9 C 10,8 C 3,2 km/h (1 Bft)
16/11/2011 00:40 10,9 C 82 % 1013,8 hPa 0,0 mm 0,0 km/h (0 Bft) E-SE 112 0 min 0 W/m 7,9 C 10,9 C 1,4 km/h (1 Bft)
16/11/2011 00:45 10,9 C 81 % 1013,8 hPa 0,0 mm 0,0 km/h (0 Bft) E 90 0 min 0 W/m 7,8 C 10,9 C 0,0 km/h (0 Bft)
16/11/2011 00:50 10,9 C 81 % 1013,8 hPa 0,0 mm 3,2 km/h (1 Bft) E 90 0 min 0 W/m 7,8 C 10,9 C 4,3 km/h (1 Bft)
16/11/2011 00:55 10,9 C 81 % 1013,8 hPa 0,0 mm 0,0 km/h (0 Bft) E 90 0 min 0 W/m 7,8 C 10,9 C 0,0 km/h (0 Bft)
16/11/2011 01:00 10,9 C 81 % 1013,8 hPa 0,0 mm 1,4 km/h (1 Bft) E 90 0 min 0 W/m 7,8 C 10,9 C 3,6 km/h (1 Bft)
16/11/2011 01:05 10,9 C 81 % 1013,8 hPa 0,0 mm 2,2 km/h (1 Bft) E-NE 67 0 min 0 W/m 7,8 C 10,9 C 3,6 km/h (1 Bft)
16/11/2011 01:10 11,1 C 81 % 1013,8 hPa 0,0 mm 0,7 km/h (0 Bft) E-SE 112 0 min 0 W/m 8,0 C 11,1 C 0,7 km/h (0 Bft)
16/11/2011 01:15 11,2 C 81 % 1013,7 hPa 0,0 mm 2,9 km/h (1 Bft) E-SE 112 0 min 0 W/m 8,1 C 11,2 C 4,3 km/h (1 Bft)
16/11/2011 01:20 11,3 C 80 % 1013,7 hPa 0,0 mm 2,2 km/h (1 Bft) E-SE 112 0 min 0 W/m 8,0 C 11,3 C 7,2 km/h (2 Bft)
16/11/2011 01:25 11,4 C 80 % 1013,7 hPa 0,0 mm 0,4 km/h (0 Bft) E-SE 112 0 min 0 W/m 8,1 C 11,4 C 2,9 km/h (1 Bft)
16/11/2011 01:30 11,4 C 80 % 1013,7 hPa 0,0 mm 1,1 km/h (1 Bft) E 90 0 min 0 W/m 8,1 C 11,4 C 1,1 km/h (1 Bft)
16/11/2011 01:35 11,4 C 80 % 1013,6 hPa 0,0 mm 1,4 km/h (1 Bft) E-SE 112 0 min 0 W/m 8,1 C 11,4 C 1,4 km/h (1 Bft)
16/11/2011 01:40 11,4 C 80 % 1013,6 hPa 0,0 mm 1,1 km/h (1 Bft) E 90 0 min 0 W/m 8,1 C 11,4 C 4,0 km/h (1 Bft)
16/11/2011 01:45 11,4 C 80 % 1013,5 hPa 0,0 mm 2,5 km/h (1 Bft) SE 135 0 min 0 W/m 8,1 C 11,4 C 4,3 km/h (1 Bft)
16/11/2011 01:50 11,5 C 80 % 1013,5 hPa 0,0 mm 3,2 km/h (1 Bft) SE 135 0 min 0 W/m 8,2 C 11,5 C 3,6 km/h (1 Bft)
16/11/2011 01:55 11,5 C 79 % 1013,5 hPa 0,0 mm 3,2 km/h (1 Bft) SE 135 0 min 0 W/m 8,0 C 11,5 C 6,1 km/h (2 Bft)
16/11/2011 02:02 11,6 C 79 % 1013,6 hPa 0,0 mm 5,4 km/h (2 Bft) SE 135 0 min 0 W/m 8,1 C 11,6 C 8,3 km/h (2 Bft)
16/11/2011 02:05 11,8 C 78 % 1013,4 hPa 0,0 mm 2,2 km/h (1 Bft) E-SE 112 0 min 0 W/m 8,1 C 11,8 C 4,3 km/h (1 Bft)
16/11/2011 02:10 11,8 C 78 % 1013,5 hPa 0,0 mm 1,4 km/h (1 Bft) E 90 0 min 0 W/m 8,1 C 11,8 C 4,3 km/h (1 Bft)
16/11/2011 02:15 11,8 C 78 % 1013,5 hPa 0,0 mm 2,2 km/h (1 Bft) E 90 0 min 0 W/m 8,1 C 11,8 C 4,3 km/h (1 Bft)
16/11/2011 02:20 11,8 C 78 % 1013,4 hPa 0,0 mm 3,6 km/h (1 Bft) E-SE 112 0 min 0 W/m 8,1 C 11,8 C 6,8 km/h (2 Bft)
16/11/2011 02:25 11,8 C 78 % 1013,5 hPa 0,0 mm 0,0 km/h (0 Bft) E-SE 112 0 min 0 W/m 8,1 C 11,8 C 3,2 km/h (1 Bft)
16/11/2011 02:30 11,8 C 78 % 1013,5 hPa 0,0 mm 0,0 km/h (0 Bft) E-SE 112 0 min 0 W/m 8,1 C 11,8 C 0,0 km/h (0 Bft)
16/11/2011 02:35 11,8 C 78 % 1013,5 hPa 0,0 mm 1,4 km/h (1 Bft) E-SE 112 0 min 0 W/m 8,1 C 11,8 C 7,2 km/h (2 Bft)
16/11/2011 02:40 11,8 C 77 % 1013,5 hPa 0,0 mm 2,9 km/h (1 Bft) SE 135 0 min 0 W/m 7,9 C 11,8 C 4,3 km/h (1 Bft)
16/11/2011 02:45 11,8 C 77 % 1013,5 hPa 0,0 mm 3,2 km/h (1 Bft) SE 135 0 min 0 W/m 7,9 C 11,8 C 6,5 km/h (2 Bft)
16/11/2011 02:50 11,8 C 77 % 1013,5 hPa 0,0 mm 6,8 km/h (2 Bft) E-SE 112 0 min 0 W/m 7,9 C 11,8 C 10,8 km/h (2 Bft)
16/11/2011 02:55 11,8 C 76 % 1013,5 hPa 0,0 mm 0,4 km/h (0 Bft) SE 135 0 min 0 W/m 7,7 C 11,8 C 0,4 km/h (0 Bft)
16/11/2011 03:00 11,8 C 76 % 1013,5 hPa 0,0 mm 2,5 km/h (1 Bft) S 180 0 min 0 W/m 7,7 C 11,8 C 7,2 km/h (2 Bft)
16/11/2011 03:05 11,8 C 76 % 1013,5 hPa 0,0 mm 5,0 km/h (1 Bft) S-SE 157 0 min 0 W/m 7,7 C 11,8 C 7,2 km/h (2 Bft)
16/11/2011 03:10 11,8 C 76 % 1013,5 hPa 0,0 mm 0,4 km/h (0 Bft) S-SE 157 0 min 0 W/m 7,7 C 11,8 C 0,4 km/h (0 Bft)
16/11/2011 03:15 11,8 C 76 % 1013,5 hPa 0,0 mm 2,2 km/h (1 Bft) SE 135 0 min 0 W/m 7,7 C 11,8 C 4,0 km/h (1 Bft)
16/11/2011 03:20 11,8 C 76 % 1013,5 hPa 0,0 mm 1,1 km/h (1 Bft) SE 135 0 min 0 W/m 7,7 C 11,8 C 3,2 km/h (1 Bft)
16/11/2011 03:25 11,6 C 76 % 1013,5 hPa 0,0 mm 2,9 km/h (1 Bft) E-SE 112 0 min 0 W/m 7,5 C 11,6 C 9,0 km/h (2 Bft)
16/11/2011 03:30 11,5 C 76 % 1013,5 hPa 0,0 mm 1,1 km/h (1 Bft) SE 135 0 min 0 W/m 7,4 C 11,5 C 4,0 km/h (1 Bft)
16/11/2011 03:35 11,4 C 76 % 1013,3 hPa 0,0 mm 2,2 km/h (1 Bft) SE 135 0 min 0 W/m 7,3 C 11,4 C 7,2 km/h (2 Bft)
16/11/2011 03:40 11,4 C 76 % 1013,3 hPa 0,0 mm 0,0 km/h (0 Bft) E-SE 112 0 min 0 W/m 7,3 C 11,4 C 0,0 km/h (0 Bft)
16/11/2011 03:45 11,3 C 76 % 1013,3 hPa 0,0 mm 0,7 km/h (0 Bft) SE 135 0 min 0 W/m 7,2 C 11,3 C 3,6 km/h (1 Bft)
16/11/2011 03:50 11,3 C 76 % 1013,3 hPa 0,0 mm 5,4 km/h (2 Bft) SE 135 0 min 0 W/m 7,2 C 11,3 C 5,4 km/h (2 Bft)
16/11/2011 03:55 11,2 C 76 % 1013,3 hPa 0,0 mm 4,7 km/h (1 Bft) SE 135 0 min 0 W/m 7,1 C 11,2 C 10,1 km/h (2 Bft)
16/11/2011 04:00 11,1 C 76 % 1013,2 hPa 0,0 mm 2,2 km/h (1 Bft) SE 135 0 min 0 W/m 7,0 C 11,1 C 4,3 km/h (1 Bft)
16/11/2011 04:05 10,9 C 76 % 1013,3 hPa 0,0 mm 0,0 km/h (0 Bft) E 90 0 min 0 W/m 6,8 C 10,9 C 0,0 km/h (0 Bft)
16/11/2011 04:10 10,8 C 76 % 1013,3 hPa 0,0 mm 1,1 km/h (1 Bft) E-SE 112 0 min 0 W/m 6,7 C 10,8 C 3,6 km/h (1 Bft)
16/11/2011 04:15 10,6 C 76 % 1013,3 hPa 0,0 mm 0,0 km/h (0 Bft) E 90 0 min 0 W/m 6,5 C 10,6 C 0,0 km/h (0 Bft)
16/11/2011 04:20 10,4 C 77 % 1013,4 hPa 0,0 mm 1,4 km/h (1 Bft) E 90 0 min 0 W/m 6,5 C 10,4 C 3,2 km/h (1 Bft)
16/11/2011 04:25 10,2 C 78 % 1013,4 hPa 0,0 mm 2,2 km/h (1 Bft) E 90 0 min 0 W/m 6,5 C 10,2 C 4,3 km/h (1 Bft)
16/11/2011 04:30 10,1 C 78 % 1013,4 hPa 0,0 mm 2,2 km/h (1 Bft) E-SE 112 0 min 0 W/m 6,4 C 10,1 C 4,3 km/h (1 Bft)
16/11/2011 04:35 10,0 C 78 % 1013,5 hPa 0,0 mm 1,8 km/h (1 Bft) E 90 0 min 0 W/m 6,3 C 10,0 C 3,2 km/h (1 Bft)
16/11/2011 04:40 10,0 C 78 % 1013,5 hPa 0,0 mm 4,0 km/h (1 Bft) S-SE 157 0 min 0 W/m 6,3 C 10,0 C 8,3 km/h (2 Bft)
16/11/2011 04:45 9,9 C 78 % 1013,5 hPa 0,0 mm 1,1 km/h (1 Bft) E 90 0 min 0 W/m 6,2 C 9,9 C 7,2 km/h (2 Bft)
16/11/2011 04:50 9,9 C 78 % 1013,6 hPa 0,0 mm 3,2 km/h (1 Bft) E-SE 112 0 min 0 W/m 6,2 C 9,9 C 3,2 km/h (1 Bft)
16/11/2011 04:55 9,9 C 78 % 1013,6 hPa 0,0 mm 0,7 km/h (0 Bft) E 90 0 min 0 W/m 6,2 C 9,9 C 4,3 km/h (1 Bft)
16/11/2011 05:00 9,8 C 78 % 1013,6 hPa 0,0 mm 2,9 km/h (1 Bft) E 90 0 min 0 W/m 6,1 C 9,8 C 8,3 km/h (2 Bft)
16/11/2011 05:05 9,8 C 78 % 1013,6 hPa 0,0 mm 1,4 km/h (1 Bft) E-NE 67 0 min 0 W/m 6,1 C 9,8 C 4,3 km/h (1 Bft)
16/11/2011 05:10 9,7 C 78 % 1013,6 hPa 0,0 mm 2,5 km/h (1 Bft) E-NE 67 0 min 0 W/m 6,1 C 9,7 C 6,8 km/h (2 Bft)
16/11/2011 05:15 9,6 C 79 % 1013,7 hPa 0,0 mm 2,9 km/h (1 Bft) E 90 0 min 0 W/m 6,1 C 9,6 C 7,2 km/h (2 Bft)
16/11/2011 05:20 9,5 C 79 % 1013,7 hPa 0,0 mm 2,2 km/h (1 Bft) E-SE 112 0 min 0 W/m 6,0 C 9,5 C 2,2 km/h (1 Bft)
16/11/2011 05:25 9,5 C 79 % 1013,7 hPa 0,0 mm 1,8 km/h (1 Bft) SE 135 0 min 0 W/m 6,0 C 9,5 C 4,0 km/h (1 Bft)
16/11/2011 05:30 9,5 C 79 % 1013,9 hPa 0,0 mm 4,0 km/h (1 Bft) SE 135 0 min 0 W/m 6,0 C 9,5 C 6,5 km/h (2 Bft)
16/11/2011 05:35 9,6 C 79 % 1013,8 hPa 0,0 mm 4,0 km/h (1 Bft) SE 135 0 min 0 W/m 6,1 C 9,6 C 10,1 km/h (2 Bft)
16/11/2011 05:40 9,6 C 78 % 1013,9 hPa 0,0 mm 6,1 km/h (2 Bft) SE 135 0 min 0 W/m 6,0 C 9,0 C 8,6 km/h (2 Bft)
16/11/2011 05:45 9,7 C 78 % 1013,8 hPa 0,0 mm 0,4 km/h (0 Bft) SE 135 0 min 0 W/m 6,1 C 9,7 C 3,2 km/h (1 Bft)
16/11/2011 05:50 9,6 C 78 % 1013,8 hPa 0,0 mm 2,9 km/h (1 Bft) S 180 0 min 0 W/m 6,0 C 9,6 C 7,6 km/h (2 Bft)
16/11/2011 05:55 9,6 C 78 % 1013,8 hPa 0,0 mm 1,4 km/h (1 Bft) S-SE 157 0 min 0 W/m 6,0 C 9,6 C 4,3 km/h (1 Bft)
16/11/2011 06:00 9,5 C 78 % 1013,8 hPa 0,0 mm 0,4 km/h (0 Bft) S-SE 157 0 min 0 W/m 5,9 C 9,5 C 3,6 km/h (1 Bft)
16/11/2011 06:05 9,5 C 78 % 1013,9 hPa 0,0 mm 1,4 km/h (1 Bft) SE 135 0 min 0 W/m 5,9 C 9,5 C 4,3 km/h (1 Bft)
16/11/2011 06:10 9,4 C 78 % 1013,9 hPa 0,0 mm 2,2 km/h (1 Bft) SE 135 0 min 0 W/m 5,8 C 9,4 C 4,3 km/h (1 Bft)
16/11/2011 06:15 9,4 C 78 % 1013,9 hPa 0,0 mm 0,0 km/h (0 Bft) SE 135 0 min 0 W/m 5,8 C 9,4 C 0,0 km/h (0 Bft)
16/11/2011 06:20 9,4 C 78 % 1014,0 hPa 0,0 mm 2,9 km/h (1 Bft) SE 135 0 min 0 W/m 5,8 C 9,4 C 4,0 km/h (1 Bft)
16/11/2011 06:25 9,4 C 78 % 1014,0 hPa 0,0 mm 3,6 km/h (1 Bft) SE 135 0 min 0 W/m 5,8 C 9,4 C 4,3 km/h (1 Bft)
16/11/2011 06:30 9,4 C 78 % 1014,0 hPa 0,0 mm 1,4 km/h (1 Bft) S-SE 157 0 min 0 W/m 5,8 C 9,4 C 1,4 km/h (1 Bft)
16/11/2011 06:35 9,5 C 77 % 1014,1 hPa 0,0 mm 2,5 km/h (1 Bft) SE 135 0 min 0 W/m 5,7 C 9,5 C 4,0 km/h (1 Bft)
16/11/2011 06:40 9,5 C 77 % 1014,0 hPa 0,0 mm 2,9 km/h (1 Bft) SE 135 0 min 0 W/m 5,7 C 9,5 C 4,3 km/h (1 Bft)
16/11/2011 06:45 9,5 C 77 % 1014,0 hPa 0,0 mm 1,4 km/h (1 Bft) S-SE 157 0 min 0 W/m 5,7 C 9,5 C 1,4 km/h (1 Bft)
16/11/2011 06:50 9,4 C 77 % 1014,0 hPa 0,0 mm 0,0 km/h (0 Bft) SE 135 0 min 0 W/m 5,6 C 9,4 C 0,0 km/h (0 Bft)
16/11/2011 06:55 9,4 C 77 % 1014,1 hPa 0,0 mm 0,4 km/h (0 Bft) E-SE 112 0 min 0 W/m 5,6 C 9,4 C 0,4 km/h (0 Bft)
16/11/2011 07:00 9,4 C 77 % 1014,2 hPa 0,0 mm 1,4 km/h (1 Bft) SE 135 0 min 0 W/m 5,6 C 9,4 C 4,3 km/h (1 Bft)
16/11/2011 07:05 9,4 C 77 % 1014,2 hPa 0,0 mm 0,0 km/h (0 Bft) E-SE 112 0 min 0 W/m 5,6 C 9,4 C 2,9 km/h (1 Bft)
16/11/2011 07:10 9,3 C 77 % 1014,2 hPa 0,0 mm 0,4 km/h (0 Bft) E-SE 112 0 min 0 W/m 5,5 C 9,3 C 4,0 km/h (1 Bft)
16/11/2011 07:15 9,1 C 77 % 1014,2 hPa 0,0 mm 1,1 km/h (1 Bft) SE 135 0 min 0 W/m 5,3 C 9,1 C 3,6 km/h (1 Bft)
16/11/2011 07:20 8,9 C 78 % 1014,2 hPa 0,0 mm 0,4 km/h (0 Bft) E-SE 112 0 min 0 W/m 5,3 C 8,9 C 3,6 km/h (1 Bft)
16/11/2011 07:25 8,8 C 78 % 1014,2 hPa 0,0 mm 0,0 km/h (0 Bft) E 90 0 min 0 W/m 5,2 C 8,8 C 3,2 km/h (1 Bft)
16/11/2011 07:30 8,8 C 78 % 1014,3 hPa 0,0 mm 0,0 km/h (0 Bft) E-SE 112 0 min 0 W/m 5,2 C 8,8 C 0,0 km/h (0 Bft)
16/11/2011 07:35 8,6 C 78 % 1014,3 hPa 0,0 mm 0,0 km/h (0 Bft) E-SE 112 0 min 0 W/m 5,0 C 8,6 C 3,2 km/h (1 Bft)
16/11/2011 07:40 8,5 C 78 % 1014,3 hPa 0,0 mm 0,0 km/h (0 Bft) SE 135 0 min 0 W/m 4,9 C 8,5 C 0,0 km/h (0 Bft)
16/11/2011 07:45 8,4 C 79 % 1014,4 hPa 0,0 mm 0,0 km/h (0 Bft) E-SE 112 0 min 0 W/m 5,0 C 8,4 C 0,0 km/h (0 Bft)
16/11/2011 07:50 8,3 C 79 % 1014,4 hPa 0,0 mm 0,7 km/h (0 Bft) E-SE 112 0 min 0 W/m 4,9 C 8,3 C 4,3 km/h (1 Bft)
16/11/2011 07:55 8,3 C 79 % 1014,4 hPa 0,0 mm 2,5 km/h (1 Bft) E 90 0 min 0 W/m 4,9 C 8,3 C 4,3 km/h (1 Bft)
16/11/2011 08:00 8,2 C 80 % 1014,6 hPa 0,0 mm 1,8 km/h (1 Bft) E 90 0 min 0 W/m 5,0 C 8,2 C 3,2 km/h (1 Bft)
16/11/2011 08:05 8,2 C 80 % 1014,6 hPa 0,0 mm 2,2 km/h (1 Bft) E-SE 112 0 min 0 W/m 5,0 C 8,2 C 4,0 km/h (1 Bft)
16/11/2011 08:10 8,2 C 80 % 1014,7 hPa 0,0 mm 0,7 km/h (0 Bft) E-SE 112 0 min 0 W/m 5,0 C 8,2 C 3,6 km/h (1 Bft)
16/11/2011 08:15 8,2 C 80 % 1014,8 hPa 0,0 mm 0,0 km/h (0 Bft) S-SE 157 0 min 0 W/m 5,0 C 8,2 C 0,0 km/h (0 Bft)
16/11/2011 08:20 8,3 C 80 % 1014,8 hPa 0,0 mm 0,7 km/h (0 Bft) SE 135 0 min 0 W/m 5,1 C 8,3 C 0,7 km/h (0 Bft)
16/11/2011 08:25 8,4 C 80 % 1014,8 hPa 0,0 mm 0,4 km/h (0 Bft) S-SE 157 0 min 0 W/m 5,2 C 8,4 C 3,6 km/h (1 Bft)
16/11/2011 08:30 8,6 C 80 % 1014,9 hPa 0,0 mm 2,2 km/h (1 Bft) E-SE 112 0 min 0 W/m 5,3 C 8,6 C 2,2 km/h (1 Bft)
16/11/2011 08:35 8,8 C 79 % 1014,9 hPa 0,0 mm 0,0 km/h (0 Bft) E-SE 112 0 min 0 W/m 5,4 C 8,8 C 0,0 km/h (0 Bft)
16/11/2011 08:40 8,8 C 79 % 1015,0 hPa 0,0 mm 0,0 km/h (0 Bft) E 90 0 min 0 W/m 5,4 C 8,8 C 2,9 km/h (1 Bft)
16/11/2011 08:45 8,8 C 79 % 1015,1 hPa 0,0 mm 2,9 km/h (1 Bft) SE 135 0 min 0 W/m 5,4 C 8,8 C 4,3 km/h (1 Bft)
16/11/2011 08:50 8,8 C 79 % 1015,2 hPa 0,0 mm 0,0 km/h (0 Bft) E 90 0 min 0 W/m 5,4 C 8,8 C 0,0 km/h (0 Bft)
16/11/2011 08:55 8,9 C 79 % 1015,1 hPa 0,0 mm 0,0 km/h (0 Bft) E 90 0 min 0 W/m 5,5 C 8,9 C 0,0 km/h (0 Bft)
16/11/2011 09:00 9,0 C 79 % 1015,2 hPa 0,0 mm 0,0 km/h (0 Bft) E-NE 67 0 min 0 W/m 5,6 C 9,0 C 0,0 km/h (0 Bft)
16/11/2011 09:05 9,1 C 79 % 1015,2 hPa 0,0 mm 0,0 km/h (0 Bft) SE 135 0 min 0 W/m 5,7 C 9,1 C 3,6 km/h (1 Bft)
16/11/2011 09:10 9,3 C 79 % 1015,2 hPa 0,0 mm 3,6 km/h (1 Bft) S 180 0 min 0 W/m 5,8 C 9,3 C 4,3 km/h (1 Bft)
16/11/2011 09:15 9,5 C 78 % 1015,3 hPa 0,0 mm 3,6 km/h (1 Bft) SE 135 0 min 0 W/m 5,9 C 9,5 C 4,3 km/h (1 Bft)
16/11/2011 09:20 9,8 C 78 % 1015,3 hPa 0,0 mm 1,4 km/h (1 Bft) E 90 0 min 0 W/m 6,1 C 9,8 C 1,4 km/h (1 Bft)
16/11/2011 09:25 10,0 C 77 % 1015,3 hPa 0,0 mm 2,2 km/h (1 Bft) E 90 0 min 0 W/m 6,2 C 10,0 C 6,1 km/h (2 Bft)
16/11/2011 09:30 10,1 C 76 % 1015,3 hPa 0,0 mm 1,1 km/h (1 Bft) SE 135 0 min 0 W/m 6,1 C 10,1 C 4,0 km/h (1 Bft)
16/11/2011 09:35 10,3 C 75 % 1015,4 hPa 0,0 mm 0,4 km/h (0 Bft) E 90 0 min 0 W/m 6,1 C 10,3 C 3,2 km/h (1 Bft)
16/11/2011 09:40 10,3 C 75 % 1015,4 hPa 0,0 mm 0,7 km/h (0 Bft) E 90 0 min 0 W/m 6,1 C 10,3 C 3,6 km/h (1 Bft)
16/11/2011 09:45 10,4 C 75 % 1015,5 hPa 0,0 mm 1,1 km/h (1 Bft) E-SE 112 0 min 0 W/m 6,2 C 10,4 C 1,1 km/h (1 Bft)
16/11/2011 09:50 10,5 C 76 % 1015,5 hPa 0,0 mm 0,0 km/h (0 Bft) E 90 0 min 0 W/m 6,5 C 10,5 C 0,0 km/h (0 Bft)
16/11/2011 09:55 10,5 C 76 % 1015,6 hPa 0,0 mm 0,0 km/h (0 Bft) E-NE 67 0 min 0 W/m 6,5 C 10,5 C 0,0 km/h (0 Bft)
16/11/2011 10:00 10,6 C 76 % 1015,7 hPa 0,0 mm 0,0 km/h (0 Bft) E-SE 112 0 min 0 W/m 6,5 C 10,6 C 0,0 km/h (0 Bft)
16/11/2011 10:05 10,6 C 76 % 1015,7 hPa 0,0 mm 0,0 km/h (0 Bft) E 90 0 min 0 W/m 6,5 C 10,6 C 0,0 km/h (0 Bft)
16/11/2011 10:10 10,6 C 76 % 1015,6 hPa 0,0 mm 1,4 km/h (1 Bft) SE 135 0 min 0 W/m 6,5 C 10,6 C 7,2 km/h (2 Bft)
16/11/2011 10:15 10,8 C 76 % 1015,6 hPa 0,0 mm 9,4 km/h (2 Bft) S 180 0 min 0 W/m 6,7 C 10,8 C 16,2 km/h (3 Bft)
16/11/2011 10:20 10,9 C 75 % 1015,6 hPa 0,0 mm 6,1 km/h (2 Bft) S-SE 157 0 min 0 W/m 6,6 C 10,9 C 9,0 km/h (2 Bft)
16/11/2011 10:25 11,1 C 75 % 1015,7 hPa 0,0 mm 7,2 km/h (2 Bft) S-SE 157 0 min 0 W/m 6,8 C 11,1 C 11,5 km/h (2 Bft)
16/11/2011 10:30 11,2 C 74 % 1015,6 hPa 0,0 mm 5,0 km/h (1 Bft) S 180 0 min 0 W/m 6,7 C 11,2 C 7,2 km/h (2 Bft)
16/11/2011 10:35 11,4 C 74 % 1015,7 hPa 0,0 mm 4,3 km/h (1 Bft) SE 135 0 min 0 W/m 6,9 C 11,4 C 4,3 km/h (1 Bft)
16/11/2011 10:40 11,4 C 74 % 1015,8 hPa 0,0 mm 5,4 km/h (2 Bft) SO 225 0 min 0 W/m 6,9 C 11,4 C 5,4 km/h (2 Bft)
16/11/2011 10:45 11,4 C 74 % 1015,8 hPa 0,0 mm 3,6 km/h (1 Bft) S 180 0 min 0 W/m 6,9 C 11,4 C 7,2 km/h (2 Bft)
16/11/2011 10:50 11,5 C 74 % 1015,8 hPa 0,0 mm 5,4 km/h (2 Bft) S 180 0 min 0 W/m 7,0 C 11,5 C 10,4 km/h (2 Bft)
16/11/2011 10:55 11,5 C 75 % 1015,8 hPa 0,0 mm 4,3 km/h (1 Bft) S-SO 202 0 min 0 W/m 7,2 C 11,5 C 6,8 km/h (2 Bft)
16/11/2011 11:00 11,5 C 75 % 1015,9 hPa 0,0 mm 5,8 km/h (2 Bft) S 180 0 min 0 W/m 7,2 C 11,5 C 12,6 km/h (3 Bft)
16/11/2011 11:05 11,6 C 75 % 1015,9 hPa 0,0 mm 4,0 km/h (1 Bft) S 180 0 min 0 W/m 7,3 C 11,6 C 9,0 km/h (2 Bft)
16/11/2011 11:10 11,6 C 75 % 1016,0 hPa 0,0 mm 1,1 km/h (1 Bft) SE 135 0 min 0 W/m 7,3 C 11,6 C 4,0 km/h (1 Bft)
16/11/2011 11:15 11,6 C 76 % 1016,0 hPa 0,0 mm 1,1 km/h (1 Bft) S-SE 157 0 min 0 W/m 7,5 C 11,6 C 4,0 km/h (1 Bft)
16/11/2011 11:20 11,7 C 76 % 1016,0 hPa 0,0 mm 2,2 km/h (1 Bft) SE 135 0 min 0 W/m 7,6 C 11,7 C 6,8 km/h (2 Bft)
16/11/2011 11:25 11,8 C 76 % 1016,0 hPa 0,0 mm 4,3 km/h (1 Bft) S 180 0 min 0 W/m 7,7 C 11,8 C 9,7 km/h (2 Bft)
16/11/2011 11:30 11,8 C 76 % 1016,0 hPa 0,0 mm 0,0 km/h (0 Bft) S 180 0 min 0 W/m 7,7 C 11,8 C 0,0 km/h (0 Bft)
16/11/2011 11:35 11,9 C 76 % 1016,0 hPa 0,0 mm 3,2 km/h (1 Bft) S 180 0 min 0 W/m 7,8 C 11,9 C 7,6 km/h (2 Bft)
16/11/2011 11:40 12,0 C 75 % 1015,9 hPa 0,0 mm 7,2 km/h (2 Bft) S-SE 157 0 min 0 W/m 7,7 C 12,0 C 12,6 km/h (3 Bft)
16/11/2011 11:45 12,1 C 75 % 1015,9 hPa 0,0 mm 7,6 km/h (2 Bft) S-SO 202 0 min 0 W/m 7,8 C 12,1 C 12,6 km/h (3 Bft)
16/11/2011 11:50 12,2 C 74 % 1015,9 hPa 0,0 mm 7,6 km/h (2 Bft) SE 135 0 min 0 W/m 7,7 C 12,2 C 7,6 km/h (2 Bft)
16/11/2011 11:55 12,3 C 73 % 1015,8 hPa 0,0 mm 4,3 km/h (1 Bft) S 180 0 min 0 W/m 7,6 C 12,3 C 4,3 km/h (1 Bft)
16/11/2011 12:00 12,3 C 73 % 1015,7 hPa 0,0 mm 4,0 km/h (1 Bft) SO 225 0 min 0 W/m 7,6 C 12,3 C 4,0 km/h (1 Bft)
16/11/2011 12:05 12,4 C 73 % 1015,8 hPa 0,0 mm 7,2 km/h (2 Bft) S-SO 202 0 min 0 W/m 7,7 C 12,4 C 10,8 km/h (2 Bft)
16/11/2011 12:10 12,5 C 73 % 1015,6 hPa 0,0 mm 7,6 km/h (2 Bft) S-SE 157 0 min 0 W/m 7,8 C 12,5 C 12,2 km/h (2 Bft)
16/11/2011 12:15 12,6 C 73 % 1015,8 hPa 0,0 mm 6,8 km/h (2 Bft) SE 135 0 min 0 W/m 7,9 C 12,6 C 6,8 km/h (2 Bft)
16/11/2011 12:20 12,6 C 73 % 1015,8 hPa 0,0 mm 5,8 km/h (2 Bft) S 180 0 min 0 W/m 7,9 C 12,6 C 9,4 km/h (2 Bft)
16/11/2011 12:25 12,8 C 73 % 1015,9 hPa 0,0 mm 8,3 km/h (2 Bft) S-SE 157 0 min 0 W/m 8,1 C 12,8 C 11,5 km/h (2 Bft)
16/11/2011 12:30 12,8 C 72 % 1015,9 hPa 0,0 mm 8,3 km/h (2 Bft) S 180 0 min 0 W/m 7,9 C 12,8 C 8,6 km/h (2 Bft)
16/11/2011 12:35 12,9 C 72 % 1015,8 hPa 0,0 mm 6,8 km/h (2 Bft) S-SO 202 0 min 0 W/m 8,0 C 12,9 C 14,8 km/h (3 Bft)
16/11/2011 12:40 12,9 C 72 % 1015,8 hPa 0,0 mm 5,4 km/h (2 Bft) S-SE 157 0 min 0 W/m 8,0 C 12,9 C 13,7 km/h (3 Bft)
16/11/2011 12:45 13,1 C 72 % 1015,8 hPa 0,0 mm 3,6 km/h (1 Bft) S-SE 157 0 min 0 W/m 8,2 C 13,1 C 3,6 km/h (1 Bft)
16/11/2011 12:50 13,1 C 71 % 1015,8 hPa 0,0 mm 7,9 km/h (2 Bft) S 180 0 min 0 W/m 8,0 C 13,1 C 12,6 km/h (3 Bft)
16/11/2011 12:55 13,2 C 71 % 1015,7 hPa 0,0 mm 5,4 km/h (2 Bft) E-SE 112 0 min 0 W/m 8,1 C 13,2 C 5,4 km/h (2 Bft)
16/11/2011 13:00 13,3 C 71 % 1015,7 hPa 0,0 mm 9,0 km/h (2 Bft) S-SO 202 0 min 0 W/m 8,2 C 13,3 C 15,1 km/h (3 Bft)
16/11/2011 13:05 13,3 C 71 % 1015,7 hPa 0,0 mm 9,0 km/h (2 Bft) S-SO 202 0 min 0 W/m 8,2 C 13,3 C 12,6 km/h (3 Bft)
16/11/2011 13:10 13,3 C 71 % 1015,7 hPa 0,0 mm 6,8 km/h (2 Bft) S 180 0 min 0 W/m 8,2 C 13,3 C 10,8 km/h (2 Bft)
16/11/2011 13:15 13,3 C 70 % 1015,6 hPa 0,0 mm 10,4 km/h (2 Bft) S 180 0 min 0 W/m 7,9 C 13,3 C 14,0 km/h (3 Bft)
16/11/2011 13:20 13,3 C 71 % 1015,6 hPa 0,0 mm 9,0 km/h (2 Bft) S-SO 202 0 min 0 W/m 8,2 C 13,3 C 11,5 km/h (2 Bft)
16/11/2011 13:25 13,4 C 71 % 1015,6 hPa 0,0 mm 12,2 km/h (2 Bft) S-SO 202 0 min 0 W/m 8,3 C 13,4 C 18,4 km/h (3 Bft)
16/11/2011 13:30 13,4 C 71 % 1015,5 hPa 0,0 mm 5,4 km/h (2 Bft) S-SE 157 0 min 0 W/m 8,3 C 13,4 C 5,4 km/h (2 Bft)
16/11/2011 13:35 13,5 C 71 % 1015,6 hPa 0,0 mm 9,4 km/h (2 Bft) SO 225 0 min 0 W/m 8,3 C 13,5 C 9,4 km/h (2 Bft)
16/11/2011 13:40 13,6 C 70 % 1015,6 hPa 0,0 mm 10,8 km/h (2 Bft) S 180 0 min 0 W/m 8,2 C 13,6 C 15,8 km/h (3 Bft)
16/11/2011 13:45 13,7 C 70 % 1015,7 hPa 0,0 mm 10,4 km/h (2 Bft) S 180 0 min 0 W/m 8,3 C 13,7 C 13,3 km/h (3 Bft)
16/11/2011 13:50 13,8 C 71 % 1015,6 hPa 0,0 mm 6,5 km/h (2 Bft) S-SO 202 0 min 0 W/m 8,6 C 13,8 C 6,5 km/h (2 Bft)
16/11/2011 13:55 13,8 C 71 % 1015,6 hPa 0,0 mm 10,1 km/h (2 Bft) S-SE 157 0 min 0 W/m 8,6 C 13,8 C 12,2 km/h (2 Bft)
16/11/2011 14:00 13,8 C 70 % 1015,5 hPa 0,0 mm 8,6 km/h (2 Bft) S-SE 157 0 min 0 W/m 8,4 C 13,8 C 11,9 km/h (2 Bft)
16/11/2011 14:05 14,0 C 71 % 1015,5 hPa 0,0 mm 6,8 km/h (2 Bft) S 180 0 min 0 W/m 8,8 C 14,0 C 7,6 km/h (2 Bft)
16/11/2011 14:10 14,3 C 71 % 1015,6 hPa 0,0 mm 6,5 km/h (2 Bft) S-SE 157 0 min 0 W/m 9,1 C 14,3 C 9,4 km/h (2 Bft)
16/11/2011 14:15 14,8 C 70 % 1015,7 hPa 0,0 mm 6,5 km/h (2 Bft) S 180 0 min 0 W/m 9,4 C 14,8 C 10,1 km/h (2 Bft)
16/11/2011 14:20 14,9 C 68 % 1015,6 hPa 0,0 mm 10,8 km/h (2 Bft) S-SO 202 0 min 0 W/m 9,0 C 14,9 C 15,8 km/h (3 Bft)
16/11/2011 14:25 14,9 C 69 % 1015,6 hPa 0,0 mm 7,2 km/h (2 Bft) S 180 0 min 0 W/m 9,3 C 14,9 C 9,0 km/h (2 Bft)
16/11/2011 14:30 14,9 C 69 % 1015,7 hPa 0,0 mm 10,1 km/h (2 Bft) SO 225 0 min 0 W/m 9,3 C 14,9 C 10,1 km/h (2 Bft)
16/11/2011 14:35 15,0 C 69 % 1015,7 hPa 0,0 mm 6,8 km/h (2 Bft) S 180 0 min 0 W/m 9,4 C 15,0 C 8,6 km/h (2 Bft)
16/11/2011 14:40 14,9 C 70 % 1015,6 hPa 0,0 mm 0,7 km/h (0 Bft) S-SE 157 0 min 0 W/m 9,5 C 14,9 C 0,7 km/h (0 Bft)
16/11/2011 14:45 15,1 C 70 % 1015,6 hPa 0,0 mm 4,3 km/h (1 Bft) SO 225 0 min 0 W/m 9,7 C 15,1 C 4,3 km/h (1 Bft)
16/11/2011 14:50 15,1 C 69 % 1015,6 hPa 0,0 mm 7,2 km/h (2 Bft) S-SE 157 0 min 0 W/m 9,5 C 15,1 C 10,8 km/h (2 Bft)
16/11/2011 14:55 15,3 C 69 % 1015,6 hPa 0,0 mm 8,3 km/h (2 Bft) S-SO 202 0 min 0 W/m 9,6 C 15,3 C 16,6 km/h (3 Bft)
16/11/2011 15:00 15,4 C 68 % 1015,6 hPa 0,0 mm 9,4 km/h (2 Bft) S-SE 157 0 min 0 W/m 9,5 C 15,4 C 10,1 km/h (2 Bft)
16/11/2011 15:05 15,4 C 68 % 1015,6 hPa 0,0 mm 6,1 km/h (2 Bft) S 180 0 min 0 W/m 9,5 C 15,4 C 6,8 km/h (2 Bft)
16/11/2011 15:10 15,4 C 68 % 1015,6 hPa 0,0 mm 7,6 km/h (2 Bft) S 180 0 min 0 W/m 9,5 C 15,4 C 7,6 km/h (2 Bft)
16/11/2011 15:15 15,4 C 67 % 1015,7 hPa 0,0 mm 4,0 km/h (1 Bft) S-SO 202 0 min 0 W/m 9,3 C 15,4 C 6,1 km/h (2 Bft)
16/11/2011 15:20 15,3 C 67 % 1015,7 hPa 0,0 mm 8,6 km/h (2 Bft) S 180 0 min 0 W/m 9,2 C 15,3 C 11,5 km/h (2 Bft)
16/11/2011 15:25 15,2 C 67 % 1015,7 hPa 0,0 mm 6,5 km/h (2 Bft) S-SE 157 0 min 0 W/m 9,1 C 15,2 C 6,8 km/h (2 Bft)
16/11/2011 15:30 15,2 C 67 % 1015,8 hPa 0,0 mm 12,2 km/h (2 Bft) S-SO 202 0 min 0 W/m 9,1 C 15,2 C 12,6 km/h (3 Bft)
16/11/2011 15:35 15,1 C 68 % 1015,8 hPa 0,0 mm 4,3 km/h (1 Bft) SO 225 0 min 0 W/m 9,2 C 15,1 C 4,3 km/h (1 Bft)
16/11/2011 15:40 15,1 C 69 % 1015,9 hPa 0,0 mm 5,8 km/h (2 Bft) S 180 0 min 0 W/m 9,5 C 15,1 C 9,0 km/h (2 Bft)
16/11/2011 15:45 15,1 C 68 % 1015,9 hPa 0,0 mm 8,6 km/h (2 Bft) SE 135 0 min 0 W/m 9,2 C 15,1 C 8,6 km/h (2 Bft)
16/11/2011 15:50 15,1 C 68 % 1016,0 hPa 0,0 mm 7,6 km/h (2 Bft) S 180 0 min 0 W/m 9,2 C 15,1 C 9,7 km/h (2 Bft)
16/11/2011 15:55 14,8 C 68 % 1016,0 hPa 0,0 mm 7,9 km/h (2 Bft) S-SO 202 0 min 0 W/m 9,0 C 14,8 C 10,1 km/h (2 Bft)
16/11/2011 16:00 14,6 C 69 % 1016,0 hPa 0,0 mm 7,6 km/h (2 Bft) S-SO 202 0 min 0 W/m 9,0 C 14,6 C 13,3 km/h (3 Bft)
16/11/2011 16:05 14,4 C 69 % 1016,1 hPa 0,0 mm 6,1 km/h (2 Bft) S-SE 157 0 min 0 W/m 8,8 C 14,4 C 10,8 km/h (2 Bft)
16/11/2011 16:10 14,3 C 70 % 1016,0 hPa 0,0 mm 1,4 km/h (1 Bft) S-SE 157 0 min 0 W/m 8,9 C 14,3 C 4,0 km/h (1 Bft)
16/11/2011 16:15 14,1 C 70 % 1016,1 hPa 0,0 mm 2,2 km/h (1 Bft) S-SO 202 0 min 0 W/m 8,7 C 14,1 C 4,3 km/h (1 Bft)
16/11/2011 16:20 13,9 C 70 % 1016,1 hPa 0,0 mm 2,5 km/h (1 Bft) S-SO 202 0 min 0 W/m 8,5 C 13,9 C 4,3 km/h (1 Bft)
16/11/2011 16:25 13,8 C 70 % 1016,2 hPa 0,0 mm 1,8 km/h (1 Bft) S-SE 157 0 min 0 W/m 8,4 C 13,8 C 4,0 km/h (1 Bft)
16/11/2011 16:30 13,6 C 71 % 1016,2 hPa 0,0 mm 1,4 km/h (1 Bft) S 180 0 min 0 W/m 8,4 C 13,6 C 1,4 km/h (1 Bft)
16/11/2011 16:35 13,4 C 72 % 1016,2 hPa 0,0 mm 0,0 km/h (0 Bft) S-SO 202 0 min 0 W/m 8,5 C 13,4 C 3,2 km/h (1 Bft)
16/11/2011 16:40 13,2 C 72 % 1016,2 hPa 0,0 mm 1,1 km/h (1 Bft) SE 135 0 min 0 W/m 8,3 C 13,2 C 7,2 km/h (2 Bft)
16/11/2011 16:45 13,1 C 73 % 1016,3 hPa 0,0 mm 0,7 km/h (0 Bft) S-SO 202 0 min 0 W/m 8,4 C 13,1 C 3,6 km/h (1 Bft)
16/11/2011 16:50 13,0 C 73 % 1016,3 hPa 0,0 mm 1,1 km/h (1 Bft) S 180 0 min 0 W/m 8,3 C 13,0 C 4,3 km/h (1 Bft)
16/11/2011 16:55 12,9 C 73 % 1016,4 hPa 0,0 mm 0,7 km/h (0 Bft) S-SE 157 0 min 0 W/m 8,2 C 12,9 C 0,7 km/h (0 Bft)
16/11/2011 17:00 12,9 C 74 % 1016,3 hPa 0,0 mm 0,4 km/h (0 Bft) S-SE 157 0 min 0 W/m 8,4 C 12,9 C 0,4 km/h (0 Bft)
16/11/2011 17:05 12,8 C 74 % 1016,4 hPa 0,0 mm 2,9 km/h (1 Bft) S 180 0 min 0 W/m 8,3 C 12,8 C 6,5 km/h (2 Bft)
16/11/2011 17:10 12,7 C 74 % 1016,4 hPa 0,0 mm 0,7 km/h (0 Bft) S-SE 157 0 min 0 W/m 8,2 C 12,7 C 2,9 km/h (1 Bft)
16/11/2011 17:15 12,6 C 74 % 1016,4 hPa 0,0 mm 0,7 km/h (0 Bft) S 180 0 min 0 W/m 8,1 C 12,6 C 4,7 km/h (1 Bft)
16/11/2011 17:20 12,4 C 75 % 1016,4 hPa 0,0 mm 1,1 km/h (1 Bft) S-SE 157 0 min 0 W/m 8,1 C 12,4 C 1,1 km/h (1 Bft)
16/11/2011 17:25 12,3 C 75 % 1016,4 hPa 0,0 mm 0,4 km/h (0 Bft) S 180 0 min 0 W/m 8,0 C 12,3 C 4,0 km/h (1 Bft)
16/11/2011 17:30 12,2 C 75 % 1016,4 hPa 0,0 mm 0,0 km/h (0 Bft) S-SE 157 0 min 0 W/m 7,9 C 12,2 C 0,0 km/h (0 Bft)
16/11/2011 17:35 12,1 C 76 % 1016,4 hPa 0,0 mm 3,2 km/h (1 Bft) S-SE 157 0 min 0 W/m 8,0 C 12,1 C 4,3 km/h (1 Bft)
16/11/2011 17:40 11,9 C 76 % 1016,6 hPa 0,0 mm 0,7 km/h (0 Bft) S-SO 202 0 min 0 W/m 7,8 C 11,9 C 4,3 km/h (1 Bft)
16/11/2011 17:45 11,8 C 76 % 1016,6 hPa 0,0 mm 1,1 km/h (1 Bft) S 180 0 min 0 W/m 7,7 C 11,8 C 3,6 km/h (1 Bft)
16/11/2011 17:50 11,8 C 77 % 1016,5 hPa 0,0 mm 5,4 km/h (2 Bft) SE 135 0 min 0 W/m 7,9 C 11,8 C 8,3 km/h (2 Bft)
16/11/2011 17:55 11,8 C 77 % 1016,4 hPa 0,0 mm 3,6 km/h (1 Bft) E-SE 112 0 min 0 W/m 7,9 C 11,8 C 7,6 km/h (2 Bft)
16/11/2011 18:00 11,9 C 77 % 1016,5 hPa 0,0 mm 7,2 km/h (2 Bft) SE 135 0 min 0 W/m 8,0 C 11,9 C 7,2 km/h (2 Bft)
16/11/2011 18:05 12,0 C 77 % 1016,5 hPa 0,0 mm 5,8 km/h (2 Bft) SE 135 0 min 0 W/m 8,1 C 12,0 C 5,8 km/h (2 Bft)
16/11/2011 18:10 12,1 C 77 % 1016,6 hPa 0,0 mm 7,6 km/h (2 Bft) S-SE 157 0 min 0 W/m 8,2 C 12,1 C 10,4 km/h (2 Bft)
16/11/2011 18:15 12,1 C 77 % 1016,5 hPa 0,0 mm 4,7 km/h (1 Bft) S 180 0 min 0 W/m 8,2 C 12,1 C 8,3 km/h (2 Bft)
16/11/2011 18:20 12,1 C 77 % 1016,6 hPa 0,0 mm 4,3 km/h (1 Bft) SE 135 0 min 0 W/m 8,2 C 12,1 C 8,6 km/h (2 Bft)
16/11/2011 18:25 12,0 C 77 % 1016,8 hPa 0,0 mm 2,2 km/h (1 Bft) S-SE 157 0 min 0 W/m 8,1 C 12,0 C 4,0 km/h (1 Bft)
16/11/2011 18:30 11,9 C 78 % 1016,8 hPa 0,0 mm 3,2 km/h (1 Bft) S-SE 157 0 min 0 W/m 8,2 C 11,9 C 3,2 km/h (1 Bft)
16/11/2011 18:35 11,9 C 78 % 1016,9 hPa 0,0 mm 4,7 km/h (1 Bft) S-SE 157 0 min 0 W/m 8,2 C 11,9 C 7,6 km/h (2 Bft)
16/11/2011 18:40 11,9 C 78 % 1016,9 hPa 0,0 mm 5,4 km/h (2 Bft) S-SE 157 0 min 0 W/m 8,2 C 11,9 C 13,7 km/h (3 Bft)
16/11/2011 18:45 12,0 C 78 % 1016,9 hPa 0,0 mm 5,0 km/h (1 Bft) S 180 0 min 0 W/m 8,3 C 12,0 C 13,7 km/h (3 Bft)
16/11/2011 18:50 12,1 C 78 % 1016,9 hPa 0,0 mm 5,4 km/h (2 Bft) S-SE 157 0 min 0 W/m 8,4 C 12,1 C 7,6 km/h (2 Bft)
16/11/2011 18:55 12,1 C 78 % 1017,0 hPa 0,0 mm 3,6 km/h (1 Bft) S-SO 202 0 min 0 W/m 8,4 C 12,1 C 3,6 km/h (1 Bft)
16/11/2011 19:00 12,1 C 78 % 1017,1 hPa 0,0 mm 5,0 km/h (1 Bft) S-SO 202 0 min 0 W/m 8,4 C 12,1 C 10,8 km/h (2 Bft)
16/11/2011 19:05 12,2 C 78 % 1017,2 hPa 0,0 mm 6,8 km/h (2 Bft) S 180 0 min 0 W/m 8,5 C 12,2 C 11,5 km/h (2 Bft)
16/11/2011 19:10 12,3 C 78 % 1017,2 hPa 0,0 mm 6,1 km/h (2 Bft) SO 225 0 min 0 W/m 8,6 C 12,3 C 6,1 km/h (2 Bft)
16/11/2011 19:15 12,3 C 78 % 1017,2 hPa 0,0 mm 5,8 km/h (2 Bft) S-SO 202 0 min 0 W/m 8,6 C 12,3 C 9,7 km/h (2 Bft)
16/11/2011 19:20 12,4 C 78 % 1017,1 hPa 0,0 mm 5,4 km/h (2 Bft) S-SO 202 0 min 0 W/m 8,7 C 12,4 C 6,8 km/h (2 Bft)
16/11/2011 19:25 12,5 C 78 % 1017,3 hPa 0,0 mm 3,2 km/h (1 Bft) SE 135 0 min 0 W/m 8,8 C 12,5 C 4,0 km/h (1 Bft)
16/11/2011 19:30 12,5 C 78 % 1017,3 hPa 0,0 mm 2,5 km/h (1 Bft) SO 225 0 min 0 W/m 8,8 C 12,5 C 9,0 km/h (2 Bft)
16/11/2011 19:35 12,6 C 78 % 1017,4 hPa 0,0 mm 3,6 km/h (1 Bft) S-SO 202 0 min 0 W/m 8,9 C 12,6 C 8,3 km/h (2 Bft)
16/11/2011 19:40 12,6 C 78 % 1017,5 hPa 0,0 mm 4,0 km/h (1 Bft) SO 225 0 min 0 W/m 8,9 C 12,6 C 6,5 km/h (2 Bft)
16/11/2011 19:45 12,6 C 78 % 1017,5 hPa 0,0 mm 6,8 km/h (2 Bft) SO 225 0 min 0 W/m 8,9 C 12,6 C 17,6 km/h (3 Bft)
16/11/2011 19:50 12,6 C 81 % 1017,7 hPa 0,0 mm 11,2 km/h (2 Bft) S-SO 202 0 min 0 W/m 9,4 C 12,6 C 13,0 km/h (3 Bft)
16/11/2011 19:55 12,5 C 83 % 1017,7 hPa 0,0 mm 2,9 km/h (1 Bft) S-SO 202 0 min 0 W/m 9,7 C 12,5 C 4,3 km/h (1 Bft)
16/11/2011 20:00 12,3 C 83 % 1017,7 hPa 0,0 mm 5,0 km/h (1 Bft) O 270 0 min 0 W/m 9,5 C 12,3 C 9,7 km/h (2 Bft)
16/11/2011 20:05 12,2 C 84 % 1017,7 hPa 0,0 mm 2,9 km/h (1 Bft) S-SO 202 0 min 0 W/m 9,6 C 12,2 C 7,6 km/h (2 Bft)
16/11/2011 20:10 12,1 C 84 % 1017,7 hPa 0,0 mm 5,0 km/h (1 Bft) S 180 0 min 0 W/m 9,5 C 12,1 C 6,5 km/h (2 Bft)
16/11/2011 20:15 12,0 C 83 % 1017,8 hPa 0,0 mm 5,4 km/h (2 Bft) S-SO 202 0 min 0 W/m 9,2 C 12,0 C 8,6 km/h (2 Bft)
16/11/2011 20:20 12,0 C 83 % 1017,9 hPa 0,0 mm 2,9 km/h (1 Bft) S-SE 157 0 min 0 W/m 9,2 C 12,0 C 4,3 km/h (1 Bft)
16/11/2011 20:25 11,9 C 84 % 1017,9 hPa 0,0 mm 8,3 km/h (2 Bft) S 180 0 min 0 W/m 9,3 C 11,9 C 15,1 km/h (3 Bft)
16/11/2011 20:30 11,9 C 86 % 1017,9 hPa 0,0 mm 5,8 km/h (2 Bft) O-SO 247 0 min 0 W/m 9,6 C 11,9 C 11,5 km/h (2 Bft)
16/11/2011 20:35 11,8 C 86 % 1017,9 hPa 0,0 mm 4,0 km/h (1 Bft) S-SO 202 0 min 0 W/m 9,5 C 11,8 C 7,6 km/h (2 Bft)
16/11/2011 20:40 11,8 C 87 % 1018,0 hPa 0,0 mm 4,3 km/h (1 Bft) S-SO 202 0 min 0 W/m 9,7 C 11,8 C 6,5 km/h (2 Bft)
16/11/2011 20:45 11,7 C 88 % 1018,0 hPa 0,0 mm 2,9 km/h (1 Bft) S 180 0 min 0 W/m 9,8 C 11,7 C 4,3 km/h (1 Bft)
16/11/2011 20:50 11,6 C 88 % 1018,1 hPa 0,0 mm 5,0 km/h (1 Bft) S-SO 202 0 min 0 W/m 9,7 C 11,6 C 9,7 km/h (2 Bft)
16/11/2011 20:55 11,6 C 89 % 1018,1 hPa 0,0 mm 1,8 km/h (1 Bft) S 180 0 min 0 W/m 9,8 C 11,6 C 4,3 km/h (1 Bft)
16/11/2011 21:00 11,6 C 89 % 1018,2 hPa 0,0 mm 5,4 km/h (2 Bft) S-SO 202 0 min 0 W/m 9,8 C 11,6 C 7,6 km/h (2 Bft)
16/11/2011 21:05 11,6 C 90 % 1018,2 hPa 0,1 mm 3,2 km/h (1 Bft) S-SO 202 0 min 0 W/m 10,0 C 11,6 C 4,3 km/h (1 Bft)
16/11/2011 21:10 11,5 C 90 % 1018,3 hPa 0,0 mm 7,2 km/h (2 Bft) S-SO 202 0 min 0 W/m 9,9 C 11,5 C 9,4 km/h (2 Bft)
16/11/2011 21:15 11,5 C 91 % 1018,3 hPa 0,0 mm 2,5 km/h (1 Bft) SO 225 0 min 0 W/m 10,1 C 11,5 C 4,3 km/h (1 Bft)
16/11/2011 21:20 11,5 C 91 % 1018,2 hPa 0,0 mm 7,6 km/h (2 Bft) S 180 0 min 0 W/m 10,1 C 11,5 C 8,3 km/h (2 Bft)
16/11/2011 21:25 11,5 C 91 % 1018,2 hPa 0,0 mm 7,6 km/h (2 Bft) N 360 0 min 0 W/m 10,1 C 11,5 C 7,6 km/h (2 Bft)
16/11/2011 21:30 11,4 C 91 % 1018,3 hPa 0,0 mm 7,6 km/h (2 Bft) S-SO 202 0 min 0 W/m 10,0 C 11,4 C 8,3 km/h (2 Bft)
16/11/2011 21:35 11,4 C 91 % 1018,4 hPa 0,0 mm 4,0 km/h (1 Bft) S-SO 202 0 min 0 W/m 10,0 C 11,4 C 8,6 km/h (2 Bft)
16/11/2011 21:40 11,4 C 92 % 1018,4 hPa 0,0 mm 2,9 km/h (1 Bft) S-SO 202 0 min 0 W/m 10,1 C 11,4 C 6,5 km/h (2 Bft)
16/11/2011 21:45 11,4 C 92 % 1018,3 hPa 0,0 mm 3,6 km/h (1 Bft) SO 225 0 min 0 W/m 10,1 C 11,4 C 4,0 km/h (1 Bft)
16/11/2011 21:50 11,4 C 92 % 1018,4 hPa 0,0 mm 3,6 km/h (1 Bft) S-SO 202 0 min 0 W/m 10,1 C 11,4 C 4,3 km/h (1 Bft)
16/11/2011 21:55 11,4 C 92 % 1018,4 hPa 0,0 mm 3,6 km/h (1 Bft) S 180 0 min 0 W/m 10,1 C 11,4 C 4,3 km/h (1 Bft)
16/11/2011 22:00 11,4 C 92 % 1018,4 hPa 0,0 mm 4,0 km/h (1 Bft) O-SO 247 0 min 0 W/m 10,1 C 11,4 C 9,0 km/h (2 Bft)
16/11/2011 22:05 11,4 C 92 % 1018,5 hPa 0,0 mm 5,0 km/h (1 Bft) SO 225 0 min 0 W/m 10,1 C 11,4 C 8,6 km/h (2 Bft)
16/11/2011 22:10 11,5 C 92 % 1018,5 hPa 0,0 mm 4,7 km/h (1 Bft) SO 225 0 min 0 W/m 10,2 C 11,5 C 10,8 km/h (2 Bft)
16/11/2011 22:15 11,5 C 92 % 1018,6 hPa 0,0 mm 4,7 km/h (1 Bft) S-SO 202 0 min 0 W/m 10,2 C 11,5 C 8,6 km/h (2 Bft)
16/11/2011 22:20 11,5 C 92 % 1018,5 hPa 0,0 mm 8,6 km/h (2 Bft) S-SO 202 0 min 0 W/m 10,2 C 11,5 C 12,6 km/h (3 Bft)
16/11/2011 22:25 11,6 C 92 % 1018,6 hPa 0,0 mm 4,0 km/h (1 Bft) SO 225 0 min 0 W/m 10,3 C 11,6 C 7,6 km/h (2 Bft)
16/11/2011 22:30 11,6 C 92 % 1018,7 hPa 0,0 mm 5,8 km/h (2 Bft) S-SO 202 0 min 0 W/m 10,3 C 11,6 C 10,4 km/h (2 Bft)
16/11/2011 22:35 11,7 C 92 % 1018,6 hPa 0,0 mm 7,9 km/h (2 Bft) S 180 0 min 0 W/m 10,4 C 11,7 C 7,9 km/h (2 Bft)
16/11/2011 22:40 11,8 C 92 % 1018,7 hPa 0,0 mm 3,6 km/h (1 Bft) S-SO 202 0 min 0 W/m 10,5 C 11,8 C 6,5 km/h (2 Bft)
16/11/2011 22:45 11,8 C 92 % 1018,8 hPa 0,0 mm 5,8 km/h (2 Bft) SO 225 0 min 0 W/m 10,5 C 11,8 C 9,0 km/h (2 Bft)
16/11/2011 22:50 11,8 C 92 % 1018,7 hPa 0,0 mm 6,1 km/h (2 Bft) S-SO 202 0 min 0 W/m 10,5 C 11,8 C 7,9 km/h (2 Bft)
16/11/2011 22:55 11,8 C 92 % 1018,8 hPa 0,0 mm 6,5 km/h (2 Bft) S-SO 202 0 min 0 W/m 10,5 C 11,8 C 9,0 km/h (2 Bft)
16/11/2011 23:00 11,8 C 92 % 1018,7 hPa 0,0 mm 5,8 km/h (2 Bft) SO 225 0 min 0 W/m 10,5 C 11,8 C 6,5 km/h (2 Bft)
16/11/2011 23:05 11,9 C 92 % 1018,7 hPa 0,0 mm 7,6 km/h (2 Bft) O-SO 247 0 min 0 W/m 10,6 C 11,9 C 8,3 km/h (2 Bft)
16/11/2011 23:10 11,8 C 92 % 1018,8 hPa 0,0 mm 11,5 km/h (2 Bft) S-SO 202 0 min 0 W/m 10,5 C 11,8 C 11,9 km/h (2 Bft)
16/11/2011 23:15 11,9 C 91 % 1018,8 hPa 0,0 mm 6,1 km/h (2 Bft) O-SO 247 0 min 0 W/m 10,5 C 11,9 C 8,6 km/h (2 Bft)
16/11/2011 23:20 11,8 C 91 % 1018,8 hPa 0,0 mm 9,7 km/h (2 Bft) SO 225 0 min 0 W/m 10,4 C 11,8 C 10,1 km/h (2 Bft)
16/11/2011 23:25 11,8 C 91 % 1018,9 hPa 0,0 mm 8,6 km/h (2 Bft) S-SO 202 0 min 0 W/m 10,4 C 11,8 C 11,9 km/h (2 Bft)
16/11/2011 23:30 11,7 C 91 % 1018,9 hPa 0,0 mm 5,8 km/h (2 Bft) S-SO 202 0 min 0 W/m 10,3 C 11,7 C 6,1 km/h (2 Bft)
16/11/2011 23:35 11,6 C 91 % 1019,0 hPa 0,0 mm 6,5 km/h (2 Bft) SO 225 0 min 0 W/m 10,2 C 11,6 C 9,4 km/h (2 Bft)
16/11/2011 23:40 11,6 C 91 % 1019,0 hPa 0,0 mm 5,4 km/h (2 Bft) S-SO 202 0 min 0 W/m 10,2 C 11,6 C 8,6 km/h (2 Bft)
16/11/2011 23:45 11,5 C 92 % 1019,1 hPa 0,0 mm 5,4 km/h (2 Bft) SO 225 0 min 0 W/m 10,2 C 11,5 C 9,7 km/h (2 Bft)
16/11/2011 23:50 11,5 C 92 % 1019,1 hPa 0,0 mm 6,1 km/h (2 Bft) SO 225 0 min 0 W/m 10,2 C 11,5 C 8,3 km/h (2 Bft)
16/11/2011 23:55 11,5 C 91 % 1019,2 hPa 0,0 mm 4,7 km/h (1 Bft) S-SO 202 0 min 0 W/m 10,1 C 11,5 C 9,7 km/h (2 Bft)
_ Min-Heure 08:15 15:30 04:00 - 17:30 - - - - 07:55 08:15 17:30
Minimum _ 8,2 C 67 % 1013,2 hPa - 0,0 km/h (0 Bft) - - - - 4,9 C 8,2 C 0,0 km/h (0 Bft)
_ Max-Heure 15:15 23:50 23:55 21:05 15:30 - - 23:55 23:55 23:05 15:15 13:25
Maximum _ 15,4 C 92 % 1019,2 hPa 0,1 mm 12,2 km/h
S-SO (2 Bft)
- - 0 min 0 W/m 10,6 C 15,4 C 18,4 km/h
S-SO (3 Bft)
Moyenne _ 11,6 C 78 % 1015,6 hPa #0,1 mm 3,8 km/h (1 Bft) S-SO - #0 min. 0 W/m 7,9 C 11,6 C 6,2 km/h (2 Bft)
Saint Bonnet de Bellac- Haute Vienne - France